createdAt,value
2019-05-25T05:26:55.739Z,30.30
2019-05-25T05:29:20.354Z,33.53
2019-05-25T05:31:46.543Z,32.37
2019-05-25T05:34:12.761Z,33.07
2019-05-25T05:36:38.938Z,34.83
2019-05-25T05:39:06.913Z,31.33
2019-05-25T05:41:35.531Z,33.50
2019-05-25T05:44:02.506Z,33.40
2019-05-25T05:46:28.693Z,34.57
2019-05-25T05:48:54.898Z,34.07
2019-05-25T05:51:21.327Z,33.10
2019-05-25T05:53:51.311Z,31.77
2019-05-25T05:56:17.515Z,34.50
2019-05-25T05:58:43.723Z,30.57
2019-05-25T06:01:09.871Z,32.03
2019-05-25T06:03:36.186Z,32.33
2019-05-25T06:06:02.363Z,30.67
2019-05-25T06:08:28.567Z,32.00
2019-05-25T06:10:54.880Z,31.13
2019-05-25T06:13:21.043Z,31.70
2019-05-25T06:15:47.218Z,33.30
2019-05-25T06:18:13.422Z,34.37
2019-05-25T06:20:39.672Z,33.57
2019-05-25T06:23:08.608Z,35.13
2019-05-25T06:25:33.928Z,32.73
2019-05-25T06:28:00.432Z,34.10
2019-05-25T06:30:26.698Z,31.37
2019-05-25T06:32:52.906Z,33.73
2019-05-25T06:35:19.071Z,33.03
2019-05-25T06:37:45.247Z,33.47
2019-05-25T06:40:11.604Z,35.53
2019-05-25T06:42:37.825Z,33.40
2019-05-25T06:45:06.119Z,33.00
2019-05-25T06:47:32.420Z,30.43
2019-05-25T06:49:58.623Z,30.40
2019-05-25T06:52:24.851Z,32.90
2019-05-25T06:54:51.055Z,31.60
2019-05-25T06:57:17.252Z,33.40
2019-05-25T06:59:43.524Z,34.87
2019-05-25T07:02:09.721Z,34.60
2019-05-25T07:04:36.094Z,33.50
2019-05-25T07:07:02.474Z,35.90
2019-05-25T07:09:28.683Z,32.17
2019-05-25T07:11:54.850Z,31.77
2019-05-25T07:14:21.126Z,29.73
2019-05-25T07:16:47.523Z,28.40
2019-05-25T07:19:13.871Z,30.93
2019-05-25T07:21:40.246Z,28.67
2019-05-25T07:24:06.454Z,27.47
2019-05-25T07:26:32.643Z,27.47
2019-05-25T07:28:59.474Z,28.97
2019-05-25T07:31:25.670Z,29.23
2019-05-25T07:33:52.147Z,24.00
2019-05-25T07:36:18.394Z,23.73
2019-05-25T07:38:44.699Z,22.93
2019-05-25T07:41:10.946Z,24.97
2019-05-25T07:43:37.136Z,23.40
2019-05-25T07:46:03.494Z,22.30
2019-05-25T07:48:29.668Z,24.63
2019-05-25T07:50:55.842Z,23.47
2019-05-25T07:53:22.042Z,24.17
2019-05-25T07:55:48.215Z,24.17
2019-05-25T07:58:17.971Z,23.43
2019-05-25T08:00:42.402Z,21.43
2019-05-25T08:03:09.605Z,24.93
2019-05-25T08:05:35.754Z,19.57
2019-05-25T08:08:03.028Z,22.20
2019-05-25T08:10:29.604Z,23.73
2019-05-25T08:12:55.782Z,24.13
2019-05-25T08:15:22.225Z,26.07
2019-05-25T08:17:48.392Z,22.40
2019-05-25T08:20:14.668Z,22.47
2019-05-25T08:22:40.866Z,22.80
2019-05-25T08:25:07.350Z,21.90
2019-05-25T08:27:33.627Z,25.47
2019-05-25T08:30:00.143Z,24.40
2019-05-25T08:32:26.316Z,22.27
2019-05-25T08:34:52.494Z,24.03
2019-05-25T08:37:18.702Z,21.53
2019-05-25T08:39:45.212Z,22.47
2019-05-25T08:42:11.658Z,21.40
2019-05-25T08:44:37.850Z,23.37
2019-05-25T08:47:04.183Z,23.50
2019-05-25T08:49:30.531Z,23.40
2019-05-25T08:51:56.715Z,23.40
2019-05-25T08:54:22.889Z,23.30
2019-05-25T08:56:49.062Z,22.07
2019-05-25T08:59:15.267Z,21.23
2019-05-25T09:01:41.576Z,20.70
2019-05-25T09:04:07.831Z,22.27
2019-05-25T09:06:34.035Z,21.57
2019-05-25T09:09:00.306Z,21.00
2019-05-25T09:11:26.695Z,20.93
2019-05-25T09:13:53.031Z,19.80
2019-05-25T09:16:19.200Z,21.40
2019-05-25T09:18:45.484Z,19.13
2019-05-25T09:21:11.932Z,19.00
2019-05-25T09:23:38.090Z,20.77
2019-05-25T09:26:04.468Z,19.60
2019-05-25T09:28:30.924Z,20.70
2019-05-25T09:30:57.458Z,20.97
2019-05-25T09:33:23.928Z,21.33
2019-05-25T09:35:50.303Z,21.23
2019-05-25T09:38:16.579Z,21.03
2019-05-25T09:40:42.855Z,23.00
2019-05-25T09:43:09.059Z,21.03
2019-05-25T09:45:35.312Z,21.73
2019-05-25T09:48:01.518Z,22.53
2019-05-25T09:50:28.097Z,22.27
2019-05-25T09:52:54.307Z,23.30
2019-05-25T09:55:20.447Z,18.53
2019-05-25T09:57:46.970Z,21.17
2019-05-25T10:00:14.322Z,19.47
2019-05-25T10:02:41.100Z,16.83
2019-05-25T10:05:08.229Z,19.97
2019-05-25T10:07:34.400Z,20.80
2019-05-25T10:10:01.506Z,20.47
2019-05-25T10:12:28.427Z,18.90
2019-05-25T10:14:55.684Z,19.93
2019-05-25T10:17:22.139Z,16.63
2019-05-25T10:19:48.446Z,18.63
2019-05-25T10:22:14.782Z,23.90
2019-05-25T10:24:41.196Z,17.03
2019-05-25T10:27:07.641Z,19.97
2019-05-25T10:29:37.070Z,20.13
2019-05-25T10:32:02.201Z,21.53
2019-05-25T10:34:28.395Z,21.33
2019-05-25T10:36:54.573Z,22.37
2019-05-25T10:39:20.750Z,21.33
2019-05-25T10:41:46.963Z,22.90
2019-05-25T10:44:13.146Z,20.97
2019-05-25T10:46:39.465Z,22.47
2019-05-25T10:49:05.814Z,21.97
2019-05-25T10:51:31.986Z,24.73
2019-05-25T10:53:58.153Z,24.07
2019-05-25T10:56:24.358Z,26.50
2019-05-25T10:58:50.716Z,24.57
2019-05-25T11:01:16.859Z,26.97
2019-05-25T11:03:43.326Z,21.77
2019-05-25T11:06:09.495Z,25.43
2019-05-25T11:08:35.681Z,24.60
2019-05-25T11:11:02.002Z,25.13
2019-05-25T11:13:28.170Z,24.27
2019-05-25T11:15:54.443Z,26.77
2019-05-25T11:18:20.790Z,27.03
2019-05-25T11:20:47.087Z,28.20
2019-05-25T11:23:13.242Z,27.13
2019-05-25T11:25:39.550Z,27.33
2019-05-25T11:28:08.290Z,25.90
2019-05-25T11:30:33.816Z,26.57
2019-05-25T11:33:00.346Z,26.27
2019-05-25T11:35:26.531Z,27.47
2019-05-25T11:37:52.706Z,28.10
2019-05-25T11:40:19.209Z,25.93
2019-05-25T11:42:45.382Z,27.40
2019-05-25T11:45:12.558Z,25.63
2019-05-25T11:47:38.902Z,26.70
2019-05-25T11:50:07.361Z,27.13
2019-05-25T11:52:33.727Z,25.33
2019-05-25T11:54:59.923Z,23.53
2019-05-25T11:57:26.098Z,21.97
2019-05-25T11:59:52.275Z,25.93
2019-05-25T12:02:18.825Z,25.13
2019-05-25T12:04:45.034Z,24.27
2019-05-25T12:07:11.212Z,25.20
2019-05-25T12:09:37.421Z,24.30
2019-05-25T12:12:03.593Z,24.73
2019-05-25T12:14:29.773Z,25.03
2019-05-25T12:16:55.973Z,23.13
2019-05-25T12:19:22.165Z,22.70
2019-05-25T12:21:48.327Z,25.53
2019-05-25T12:24:14.774Z,20.93
2019-05-25T12:26:41.000Z,21.40
2019-05-25T12:29:07.215Z,20.27
2019-05-25T12:31:33.430Z,22.97
2019-05-25T12:34:00.171Z,21.90
2019-05-25T12:36:26.338Z,22.67
2019-05-25T12:38:52.665Z,23.53
2019-05-25T12:41:18.841Z,21.70
2019-05-25T12:43:45.107Z,25.73
2019-05-25T12:46:11.442Z,22.43
2019-05-25T12:48:37.615Z,25.23
2019-05-25T12:51:03.898Z,26.67
2019-05-25T12:53:30.325Z,23.13
2019-05-25T12:55:56.454Z,22.83
2019-05-25T12:58:23.828Z,20.67
2019-05-25T13:00:56.114Z,19.57
2019-05-25T13:03:18.310Z,18.07
2019-05-25T13:05:44.536Z,20.07
2019-05-25T13:08:10.745Z,19.80
2019-05-25T13:10:36.929Z,18.27
2019-05-25T13:13:03.614Z,17.90
2019-05-25T13:15:29.930Z,16.50
2019-05-25T13:17:56.122Z,17.33
2019-05-25T13:20:22.284Z,18.03
2019-05-25T13:22:48.499Z,15.83
2019-05-25T13:25:14.672Z,16.23
2019-05-25T13:27:40.951Z,16.63
2019-05-25T13:30:08.250Z,15.47
2019-05-25T13:32:34.478Z,16.70
2019-05-25T13:35:01.142Z,17.97
2019-05-25T13:37:27.330Z,18.03
2019-05-25T13:39:53.511Z,16.57
2019-05-25T13:42:19.686Z,18.17
2019-05-25T13:44:46.192Z,17.70
2019-05-25T13:47:12.466Z,17.83
2019-05-25T13:49:38.638Z,19.00
2019-05-25T13:52:04.947Z,16.93
2019-05-25T13:54:31.122Z,14.47
2019-05-25T13:56:57.398Z,15.27
2019-05-25T13:59:23.695Z,16.17
2019-05-25T14:01:49.878Z,14.33
2019-05-25T14:04:16.054Z,13.57
2019-05-25T14:06:42.266Z,15.57
2019-05-25T14:09:08.571Z,14.90
2019-05-25T14:11:34.721Z,16.47
2019-05-25T14:14:01.129Z,17.93
2019-05-25T14:16:27.291Z,18.70
2019-05-25T14:18:53.472Z,16.60
2019-05-25T14:21:19.666Z,15.90
2019-05-25T14:23:46.035Z,16.83
2019-05-25T14:26:12.312Z,16.40
2019-05-25T14:28:38.541Z,15.30
2019-05-25T14:31:04.795Z,16.23
2019-05-25T14:33:30.973Z,16.03
2019-05-25T14:35:57.716Z,15.40
2019-05-25T14:38:23.883Z,14.83
2019-05-25T14:40:50.070Z,14.07
2019-05-25T14:43:16.430Z,12.47
2019-05-25T14:45:42.602Z,12.47
2019-05-25T14:48:08.776Z,11.80
2019-05-25T14:50:35.122Z,9.30
2019-05-25T14:53:01.331Z,11.77
2019-05-25T14:55:27.471Z,11.70
2019-05-25T14:57:53.780Z,11.57
2019-05-25T15:00:20.154Z,11.17
2019-05-25T15:02:46.426Z,9.63
2019-05-25T15:05:12.623Z,12.67
2019-05-25T15:07:38.794Z,9.63
2019-05-25T15:10:05.893Z,12.53
2019-05-25T15:12:32.082Z,16.07
2019-05-25T15:14:58.368Z,13.33
2019-05-25T15:17:24.551Z,10.97
2019-05-25T15:19:50.755Z,10.23
2019-05-25T15:22:17.093Z,10.60
2019-05-25T15:24:43.279Z,9.23
2019-05-25T15:27:09.591Z,11.40
2019-05-25T15:29:35.800Z,10.60
2019-05-25T15:32:18.500Z,9.33
2019-05-25T15:34:29.946Z,9.77
2019-05-25T15:36:57.554Z,11.13
2019-05-25T15:39:23.834Z,10.00
2019-05-25T15:41:50.198Z,11.60
2019-05-25T15:44:16.378Z,11.03
2019-05-25T15:46:42.829Z,12.37
2019-05-25T15:49:09.101Z,8.67
2019-05-25T15:51:35.367Z,8.53
2019-05-25T15:54:01.558Z,10.87
2019-05-25T15:56:27.982Z,9.20
2019-05-25T15:58:54.258Z,7.50
2019-05-25T16:01:20.841Z,8.97
2019-05-25T16:03:47.150Z,9.20
2019-05-25T16:06:13.431Z,7.57
2019-05-25T16:08:39.669Z,7.70
2019-05-25T16:11:05.874Z,7.10
2019-05-25T16:13:32.045Z,5.87
2019-05-25T16:15:58.235Z,5.40
2019-05-25T16:18:24.438Z,6.20
2019-05-25T16:20:50.619Z,8.70
2019-05-25T16:23:16.790Z,7.73
2019-05-25T16:25:42.990Z,8.50
2019-05-25T16:28:09.174Z,8.53
2019-05-25T16:30:35.357Z,9.00
2019-05-25T16:33:11.539Z,10.10
2019-05-25T16:35:29.932Z,8.83
2019-05-25T16:37:57.274Z,10.10
2019-05-25T16:40:25.023Z,10.53
2019-05-25T16:42:51.206Z,12.03
2019-05-25T16:45:17.477Z,12.63
2019-05-25T16:47:43.680Z,10.37
2019-05-25T16:50:14.702Z,9.27
2019-05-25T16:52:40.042Z,6.50
2019-05-25T16:55:06.768Z,5.70
2019-05-25T16:57:33.050Z,5.00
2019-05-25T16:59:59.222Z,5.27
2019-05-25T17:02:25.519Z,6.60
2019-05-25T17:04:51.687Z,5.53
2019-05-25T17:07:17.874Z,7.93
2019-05-25T17:09:44.076Z,6.83
2019-05-25T17:12:10.347Z,7.27
2019-05-25T17:14:36.699Z,8.03
2019-05-25T17:17:03.106Z,10.50
2019-05-25T17:19:29.345Z,11.53
2019-05-25T17:21:55.462Z,10.17
2019-05-25T17:24:21.755Z,8.10
2019-05-25T17:26:47.938Z,6.37
2019-05-25T17:29:14.102Z,6.67
2019-05-25T17:31:40.302Z,7.83
2019-05-25T17:34:06.575Z,6.27
2019-05-25T17:36:32.750Z,6.10
2019-05-25T17:38:59.678Z,7.47
2019-05-25T17:41:25.908Z,8.80
2019-05-25T17:43:52.125Z,7.60
2019-05-25T17:46:18.329Z,8.87
2019-05-25T17:48:44.501Z,9.17
2019-05-25T17:51:10.682Z,10.17
2019-05-25T17:53:37.036Z,9.73
2019-05-25T17:56:03.411Z,10.37
2019-05-25T17:58:29.582Z,10.10
2019-05-25T18:00:55.946Z,7.83
2019-05-25T18:03:22.124Z,9.03
2019-05-25T18:05:48.392Z,6.97
2019-05-25T18:08:14.601Z,7.57
2019-05-25T18:10:52.058Z,7.00
2019-05-25T18:13:08.966Z,6.70
2019-05-25T18:15:35.302Z,6.13
2019-05-25T18:18:01.684Z,7.40
2019-05-25T18:20:27.967Z,6.47
2019-05-25T18:22:54.180Z,7.30
2019-05-25T18:25:20.446Z,8.47
2019-05-25T18:27:46.610Z,7.60
2019-05-25T18:30:13.130Z,7.07
2019-05-25T18:32:39.382Z,7.03
2019-05-25T18:35:07.859Z,7.33
2019-05-25T18:37:34.069Z,8.43
2019-05-25T18:40:00.808Z,7.40
2019-05-25T18:42:30.207Z,7.57
2019-05-25T18:44:55.007Z,8.70
2019-05-25T18:47:21.230Z,8.70
2019-05-25T18:49:47.378Z,8.33
2019-05-25T18:52:13.580Z,9.47
2019-05-25T18:54:39.753Z,9.27
2019-05-25T18:57:09.329Z,9.13
2019-05-25T18:59:34.133Z,8.97
2019-05-25T19:02:00.310Z,8.77
2019-05-25T19:04:43.300Z,8.70
2019-05-25T19:06:54.503Z,8.03
2019-05-25T19:09:20.986Z,7.00
2019-05-25T19:11:47.163Z,8.20
2019-05-25T19:14:13.379Z,8.00
2019-05-25T19:16:39.553Z,8.20
2019-05-25T19:19:05.747Z,8.07
2019-05-25T19:21:32.127Z,7.63
2019-05-25T19:23:58.295Z,6.57
2019-05-25T19:26:24.480Z,6.73
2019-05-25T19:28:50.799Z,6.50
2019-05-25T19:31:17.045Z,6.97
2019-05-25T19:33:43.218Z,7.40
2019-05-25T19:36:09.622Z,7.13
2019-05-25T19:38:35.826Z,6.37
2019-05-25T19:41:03.101Z,5.30
2019-05-25T19:43:29.294Z,5.30
2019-05-25T19:45:58.763Z,5.73
2019-05-25T19:48:24.939Z,5.43
2019-05-25T19:50:51.132Z,5.17
2019-05-25T19:53:17.306Z,5.70
2019-05-25T19:55:43.583Z,5.27
2019-05-25T19:58:09.885Z,5.23
2019-05-25T20:00:36.062Z,5.40
2019-05-25T20:03:02.238Z,6.43
2019-05-25T20:05:28.525Z,7.60
2019-05-25T20:07:54.715Z,7.23
2019-05-25T20:10:21.184Z,8.77
2019-05-25T20:12:47.386Z,8.33
2019-05-25T20:15:13.750Z,8.57
2019-05-25T20:17:39.934Z,7.90
2019-05-25T20:20:06.800Z,8.70
2019-05-25T20:22:33.023Z,8.17
2019-05-25T20:24:59.302Z,8.47
2019-05-25T20:27:25.503Z,8.27
2019-05-25T20:29:51.683Z,8.53
2019-05-25T20:32:17.859Z,9.07
2019-05-25T20:34:45.826Z,8.47
2019-05-25T20:37:12.043Z,9.67
2019-05-25T20:39:38.225Z,9.93
2019-05-25T20:42:04.642Z,10.53
2019-05-25T20:44:30.811Z,10.77
2019-05-25T20:46:56.999Z,9.80
2019-05-25T20:49:23.300Z,8.83
2019-05-25T20:51:49.487Z,9.27
2019-05-25T20:54:15.655Z,9.10
2019-05-25T20:56:41.964Z,8.73
2019-05-25T20:59:08.238Z,9.00
2019-05-25T21:01:34.429Z,9.17
2019-05-25T21:04:00.826Z,9.50
2019-05-25T21:06:27.094Z,10.63
2019-05-25T21:08:53.274Z,10.23
2019-05-25T21:11:19.474Z,10.80
2019-05-25T21:13:45.751Z,12.00
2019-05-25T21:16:11.918Z,11.87
2019-05-25T21:18:38.118Z,11.30
2019-05-25T21:21:04.295Z,12.83
2019-05-25T21:23:30.478Z,12.40
2019-05-25T21:25:56.900Z,12.87
2019-05-25T21:28:23.075Z,13.43
2019-05-25T21:30:49.550Z,12.67
2019-05-25T21:33:15.751Z,13.00
2019-05-25T21:35:42.247Z,12.40
2019-05-25T21:38:08.426Z,12.57
2019-05-25T21:40:34.718Z,11.40
2019-05-25T21:43:01.244Z,13.63
2019-05-25T21:45:27.410Z,13.00
2019-05-25T21:47:56.282Z,12.83
2019-05-25T21:50:21.606Z,12.77
2019-05-25T21:52:47.782Z,14.73
2019-05-25T21:55:15.991Z,17.07
2019-05-25T21:57:42.171Z,18.63
2019-05-25T22:00:10.465Z,16.90
2019-05-25T22:02:36.662Z,15.17
2019-05-25T22:05:04.023Z,17.70
2019-05-25T22:07:30.191Z,16.53
2019-05-25T22:09:56.353Z,15.63
2019-05-25T22:12:22.482Z,16.03
2019-05-25T22:14:49.068Z,16.03
2019-05-25T22:17:15.582Z,16.20
2019-05-25T22:19:41.970Z,17.43
2019-05-25T22:22:08.354Z,17.77
2019-05-25T22:24:35.285Z,17.60
2019-05-25T22:27:01.561Z,17.77
2019-05-25T22:29:27.946Z,17.73
2019-05-25T22:31:54.351Z,16.90
2019-05-25T22:34:20.919Z,17.50
2019-05-25T22:36:47.190Z,18.27
2019-05-25T22:39:13.654Z,16.77
2019-05-25T22:41:39.935Z,17.80
2019-05-25T22:44:06.974Z,15.57
2019-05-25T22:46:33.635Z,18.00
2019-05-25T22:49:00.002Z,17.33
2019-05-25T22:51:26.182Z,18.03
2019-05-25T22:53:52.410Z,17.30
2019-05-25T22:56:18.679Z,19.47
2019-05-25T22:58:44.858Z,17.93
2019-05-25T23:01:11.161Z,17.47
2019-05-25T23:03:37.489Z,17.90
2019-05-25T23:06:03.601Z,18.40
2019-05-25T23:08:29.979Z,18.37
2019-05-25T23:10:56.190Z,17.07
2019-05-25T23:13:22.571Z,17.67
2019-05-25T23:15:48.987Z,18.10
2019-05-25T23:18:15.157Z,18.47
2019-05-25T23:20:41.335Z,18.53
2019-05-25T23:23:07.639Z,18.07
2019-05-25T23:25:33.808Z,17.50
2019-05-25T23:28:00.183Z,17.13
2019-05-25T23:30:26.633Z,17.80
2019-05-25T23:32:52.836Z,17.57
2019-05-25T23:35:18.978Z,17.10
2019-05-25T23:37:45.298Z,18.40
2019-05-25T23:40:12.071Z,15.77
2019-05-25T23:42:38.244Z,17.67
2019-05-25T23:45:05.156Z,17.57
2019-05-25T23:47:31.335Z,18.83
2019-05-25T23:49:59.657Z,18.80
2019-05-25T23:52:25.525Z,17.50
2019-05-25T23:54:51.978Z,17.40
2019-05-25T23:57:18.158Z,18.20
2019-05-25T23:59:44.571Z,17.80
